createdAt,value
2019-03-28T00:00:47.039Z,13.30
2019-03-28T00:05:50.098Z,12.97
2019-03-28T00:10:53.538Z,12.53
2019-03-28T00:15:56.752Z,14.67
2019-03-28T00:20:59.825Z,14.30
2019-03-28T00:26:03.473Z,14.67
2019-03-28T00:31:06.544Z,14.73
2019-03-28T00:36:09.894Z,16.00
2019-03-28T00:41:13.105Z,17.37
2019-03-28T00:46:16.627Z,18.20
2019-03-28T00:51:20.141Z,18.70
2019-03-28T00:56:23.658Z,18.13
2019-03-28T01:01:28.572Z,16.63
2019-03-28T01:06:32.221Z,17.87
2019-03-28T01:11:35.565Z,17.80
2019-03-28T01:16:39.401Z,18.43
2019-03-28T01:21:42.782Z,19.77
2019-03-28T01:26:56.663Z,19.70
2019-03-28T01:31:50.916Z,19.23
2019-03-28T01:36:54.255Z,19.03
2019-03-28T01:41:57.467Z,21.90
2019-03-28T01:47:00.677Z,21.07
2019-03-28T01:52:04.366Z,21.33
2019-03-28T01:57:11.157Z,23.43
2019-03-28T02:02:12.993Z,23.87
2019-03-28T02:07:16.285Z,23.40
2019-03-28T02:12:19.444Z,24.10
2019-03-28T02:17:22.704Z,24.70
2019-03-28T02:22:25.914Z,23.47
2019-03-28T02:27:29.123Z,23.63
2019-03-28T02:32:33.737Z,23.73
2019-03-28T02:37:37.081Z,24.93
2019-03-28T02:42:40.598Z,23.20
2019-03-28T02:47:43.808Z,23.97
2019-03-28T02:52:47.460Z,25.23
2019-03-28T02:57:50.727Z,26.10
2019-03-28T03:02:55.630Z,27.40
2019-03-28T03:07:59.111Z,29.43
2019-03-28T03:13:04.073Z,31.10
2019-03-28T03:18:07.761Z,28.80
2019-03-28T03:23:11.277Z,28.53
2019-03-28T03:28:15.448Z,32.53
2019-03-28T03:33:18.583Z,30.63
2019-03-28T03:38:22.055Z,31.53
2019-03-28T03:43:25.266Z,31.23
2019-03-28T03:48:28.784Z,31.53
2019-03-28T03:53:31.914Z,31.17
2019-03-28T03:58:35.204Z,29.60
2019-03-28T04:03:40.241Z,29.93
2019-03-28T04:08:43.355Z,28.50
2019-03-28T04:13:47.586Z,31.20
2019-03-28T04:18:50.813Z,31.63
2019-03-28T04:23:53.944Z,29.77
2019-03-28T04:28:57.231Z,30.07
2019-03-28T04:34:06.896Z,29.73
2019-03-28T04:39:05.807Z,30.67
2019-03-28T04:44:09.345Z,27.47
2019-03-28T04:49:15.608Z,33.63
2019-03-28T04:54:17.830Z,28.40
2019-03-28T04:59:21.102Z,26.80
2019-03-28T05:04:24.311Z,28.43
2019-03-28T05:09:29.471Z,27.57
2019-03-28T05:14:32.576Z,28.53
2019-03-28T05:19:35.915Z,29.50
2019-03-28T05:24:39.303Z,30.07
2019-03-28T05:29:42.822Z,29.20
2019-03-28T05:34:46.033Z,27.20
2019-03-28T05:39:49.551Z,28.83
2019-03-28T05:44:52.761Z,29.53
2019-03-28T05:49:57.091Z,28.53
2019-03-28T05:55:05.138Z,28.67
2019-03-28T06:00:07.113Z,30.20
2019-03-28T06:05:10.824Z,28.77
2019-03-28T06:10:16.393Z,28.83
2019-03-28T06:15:19.521Z,29.33
2019-03-28T06:20:22.911Z,28.60
2019-03-28T06:25:26.046Z,30.83
2019-03-28T06:30:29.122Z,27.97
2019-03-28T06:35:32.543Z,29.83
2019-03-28T06:40:35.572Z,27.37
2019-03-28T06:45:38.633Z,29.67
2019-03-28T06:50:41.867Z,26.13
2019-03-28T06:55:45.384Z,24.80
2019-03-28T07:00:48.596Z,27.53
2019-03-28T07:05:51.805Z,26.43
2019-03-28T07:10:57.868Z,25.10
2019-03-28T07:16:00.375Z,26.00
2019-03-28T07:21:03.594Z,26.10
2019-03-28T07:26:06.618Z,26.77
2019-03-28T07:31:10.008Z,26.87
2019-03-28T07:36:15.018Z,25.53
2019-03-28T07:41:18.249Z,26.60
2019-03-28T07:46:21.357Z,27.63
2019-03-28T08:07:29.371Z,22.60
2019-03-28T08:12:32.805Z,22.40
2019-03-28T08:17:36.015Z,23.40
2019-03-28T08:22:39.229Z,23.70
2019-03-28T08:27:44.230Z,23.67
2019-03-28T08:32:47.489Z,24.17
2019-03-28T08:37:50.699Z,22.83
2019-03-28T08:42:53.827Z,19.63
2019-03-28T08:47:57.119Z,21.07
2019-03-28T08:53:00.206Z,20.93
2019-03-28T08:58:04.155Z,20.70
2019-03-28T09:03:07.256Z,17.90
2019-03-28T09:08:10.578Z,15.43
2019-03-28T09:13:13.617Z,15.47
2019-03-28T09:18:17.819Z,16.27
2019-03-28T09:23:21.130Z,15.43
2019-03-28T09:28:25.364Z,14.63
2019-03-28T09:33:30.795Z,13.97
2019-03-28T09:38:33.833Z,14.77
2019-03-28T09:43:37.041Z,13.17
2019-03-28T09:48:40.251Z,13.13
2019-03-28T09:53:43.462Z,12.10
2019-03-28T09:58:46.558Z,11.83
2019-03-28T10:03:49.883Z,12.50
2019-03-28T10:08:54.810Z,13.57
2019-03-28T10:13:57.878Z,12.30
2019-03-28T10:19:00.941Z,14.13
2019-03-28T10:24:04.570Z,13.57
2019-03-28T10:29:07.700Z,11.73
2019-03-28T10:34:10.777Z,15.27
2019-03-28T10:39:14.201Z,14.07
2019-03-28T10:44:17.411Z,13.97
2019-03-28T10:49:20.492Z,11.67
2019-03-28T10:54:25.721Z,12.07
2019-03-28T10:59:30.430Z,12.60
2019-03-28T11:04:33.442Z,12.30
2019-03-28T11:09:36.517Z,10.83
2019-03-28T11:14:39.582Z,10.77
2019-03-28T11:19:44.569Z,10.77
2019-03-28T11:24:47.535Z,10.33
2019-03-28T11:29:50.923Z,9.50
2019-03-28T11:34:53.999Z,8.93
2019-03-28T11:39:57.149Z,10.07
2019-03-28T11:45:00.454Z,9.47
2019-03-28T11:50:04.629Z,8.83
2019-03-28T11:55:08.763Z,8.97
2019-03-28T12:00:13.319Z,7.47
2019-03-28T12:05:18.315Z,7.43
2019-03-28T12:10:21.400Z,8.70
2019-03-28T12:15:25.557Z,6.20
2019-03-28T12:20:28.563Z,7.13
2019-03-28T12:25:31.636Z,6.60
2019-03-28T12:30:36.608Z,6.47
2019-03-28T12:35:41.443Z,5.00
2019-03-28T12:40:44.657Z,5.03
2019-03-28T12:45:48.861Z,4.47
2019-03-28T12:50:58.681Z,3.97
2019-03-28T12:55:57.052Z,4.70
2019-03-28T13:01:00.262Z,4.03
2019-03-28T13:06:05.315Z,3.83
2019-03-28T13:11:08.305Z,3.60
2019-03-28T13:16:11.350Z,3.30
2019-03-28T13:21:14.563Z,4.83
2019-03-28T13:26:17.849Z,4.73
2019-03-28T13:31:20.938Z,4.73
2019-03-28T13:36:24.013Z,4.83
2019-03-28T13:41:27.097Z,4.63
2019-03-28T13:46:30.156Z,4.93
2019-03-28T13:51:33.224Z,5.13
2019-03-28T13:56:38.562Z,5.00
2019-03-28T14:01:41.208Z,3.83
2019-03-28T14:06:45.384Z,4.57
2019-03-28T14:11:48.586Z,4.30
2019-03-28T14:16:53.156Z,4.17
2019-03-28T14:21:56.851Z,4.20
2019-03-28T14:26:59.895Z,5.40
2019-03-28T14:32:02.987Z,2.70
2019-03-28T14:37:07.983Z,4.37
2019-03-28T14:42:10.976Z,2.23
2019-03-28T14:47:14.438Z,2.57
2019-03-28T14:52:17.495Z,2.87
2019-03-28T14:57:21.010Z,3.70
2019-03-28T15:02:24.106Z,3.67
2019-03-28T15:07:27.201Z,3.80
2019-03-28T15:12:30.491Z,3.17
2019-03-28T15:17:33.700Z,3.67
2019-03-28T15:22:36.701Z,4.30
2019-03-28T15:27:40.974Z,3.37
2019-03-28T15:32:45.857Z,4.87
2019-03-28T15:37:48.864Z,4.90
2019-03-28T15:42:51.980Z,3.83
2019-03-28T15:47:55.115Z,3.00
2019-03-28T15:52:58.323Z,3.57
2019-03-28T15:58:01.412Z,3.10
2019-03-28T16:03:04.714Z,4.30
2019-03-28T16:08:07.773Z,2.77
2019-03-28T16:13:12.394Z,3.20
2019-03-28T16:18:15.569Z,2.93
2019-03-28T16:23:18.813Z,2.80
2019-03-28T16:28:21.912Z,3.13
2019-03-28T16:33:25.237Z,3.03
2019-03-28T16:38:29.060Z,2.27
2019-03-28T16:43:32.120Z,2.30
2019-03-28T16:48:35.428Z,1.83
2019-03-28T16:53:38.500Z,2.23
2019-03-28T16:58:41.594Z,2.00
2019-03-28T17:03:44.630Z,1.77
2019-03-28T17:08:48.135Z,1.53
2019-03-28T17:13:52.339Z,1.90
2019-03-28T17:18:57.275Z,2.10
2019-03-28T17:24:00.410Z,1.50
2019-03-28T17:29:03.539Z,1.53
2019-03-28T17:34:06.648Z,2.00
2019-03-28T17:39:09.704Z,1.50
2019-03-28T17:44:14.433Z,1.33
2019-03-28T17:49:18.000Z,1.07
2019-03-28T17:54:21.064Z,1.33
2019-03-28T17:59:24.123Z,1.00
2019-03-28T18:04:27.228Z,1.27
2019-03-28T18:09:30.289Z,1.33
2019-03-28T18:14:34.447Z,0.93
2019-03-28T18:19:37.525Z,1.30
2019-03-28T18:24:41.191Z,1.20
2019-03-28T18:29:45.085Z,0.90
2019-03-28T18:34:54.453Z,1.17
2019-03-28T18:39:53.039Z,1.00
2019-03-28T18:44:56.188Z,1.10
2019-03-28T18:50:02.913Z,1.30
2019-03-28T18:55:05.288Z,1.83
2019-03-28T19:00:09.402Z,1.70
2019-03-28T19:05:19.769Z,1.80
2019-03-28T19:10:19.825Z,1.90
2019-03-28T19:15:23.718Z,2.57
2019-03-28T19:20:27.026Z,1.93
2019-03-28T19:25:30.094Z,2.73
2019-03-28T19:30:34.196Z,2.53
2019-03-28T19:35:39.945Z,2.27
2019-03-28T19:40:45.206Z,2.50
2019-03-28T19:45:48.191Z,5.00
2019-03-28T19:50:51.255Z,3.30
2019-03-28T19:55:54.936Z,3.20
2019-03-28T20:00:58.485Z,4.03
2019-03-28T20:06:01.611Z,4.67
2019-03-28T20:11:04.673Z,3.33
2019-03-28T20:16:07.831Z,4.07
2019-03-28T20:21:10.899Z,6.30
2019-03-28T20:26:14.279Z,4.17
2019-03-28T20:31:17.374Z,6.37
2019-03-28T20:36:36.762Z,4.70
2019-03-28T20:41:25.702Z,20.07
2019-03-28T20:46:29.077Z,10.13
2019-03-28T20:51:32.688Z,3.70
2019-03-28T20:56:35.949Z,3.60
2019-03-28T21:01:42.386Z,4.27
2019-03-28T21:06:45.929Z,3.00
2019-03-28T21:11:49.180Z,2.70
2019-03-28T21:16:52.194Z,2.50
2019-03-28T21:21:55.515Z,1.73
2019-03-28T21:26:58.590Z,2.57
2019-03-28T21:32:01.949Z,2.13
2019-03-28T21:37:06.544Z,3.50
2019-03-28T21:42:12.114Z,3.00
2019-03-28T21:47:14.841Z,3.57
2019-03-28T21:52:17.945Z,2.83
2019-03-28T21:57:21.014Z,1.80
2019-03-28T22:02:24.762Z,1.80
2019-03-28T22:07:28.076Z,1.70
2019-03-28T22:12:31.961Z,1.97
2019-03-28T22:17:35.305Z,3.00
2019-03-28T22:22:39.642Z,2.77
2019-03-28T22:27:42.662Z,3.37
2019-03-28T22:32:47.136Z,1.93
2019-03-28T22:37:50.979Z,3.40
2019-03-28T22:42:57.218Z,7.40
2019-03-28T22:48:10.587Z,6.83
2019-03-28T22:53:05.554Z,5.73
2019-03-28T22:58:09.080Z,5.80
2019-03-28T23:03:15.379Z,4.30
2019-03-28T23:08:19.949Z,5.97
2019-03-28T23:13:23.721Z,9.33
2019-03-28T23:18:28.161Z,10.00
2019-03-28T23:23:31.679Z,8.73
2019-03-28T23:28:34.719Z,9.30
2019-03-28T23:33:37.823Z,8.87
2019-03-28T23:38:40.892Z,8.90
2019-03-28T23:43:43.939Z,8.47
2019-03-28T23:48:47.864Z,9.03
2019-03-28T23:53:53.859Z,9.73
2019-03-28T23:58:56.844Z,9.67
